sensor_id;sensor_type;location;lat;lon;timestamp;P1;durP1;ratioP1;P2;durP2;ratioP2
15553;SDS011;7878;44.632;10.942;2022-09-09T00:00:53;7.07;;;5.85;;
15553;SDS011;7878;44.632;10.942;2022-09-09T00:03:32;10.55;;;5.78;;
15553;SDS011;7878;44.632;10.942;2022-09-09T00:06:30;11.70;;;6.13;;
15553;SDS011;7878;44.632;10.942;2022-09-09T00:09:01;10.05;;;5.90;;
15553;SDS011;7878;44.632;10.942;2022-09-09T00:11:41;10.13;;;6.18;;
15553;SDS011;7878;44.632;10.942;2022-09-09T00:14:11;11.60;;;7.07;;
15553;SDS011;7878;44.632;10.942;2022-09-09T00:16:58;8.32;;;6.30;;
15553;SDS011;7878;44.632;10.942;2022-09-09T00:22:15;12.50;;;6.47;;
15553;SDS011;7878;44.632;10.942;2022-09-09T00:27:34;14.60;;;6.18;;
15553;SDS011;7878;44.632;10.942;2022-09-09T00:33:30;12.68;;;7.40;;
15553;SDS011;7878;44.632;10.942;2022-09-09T00:35:42;11.15;;;6.55;;
15553;SDS011;7878;44.632;10.942;2022-09-09T00:41:11;10.18;;;6.72;;
15553;SDS011;7878;44.632;10.942;2022-09-09T00:43:46;10.68;;;6.40;;
15553;SDS011;7878;44.632;10.942;2022-09-09T00:49:26;10.55;;;6.13;;
15553;SDS011;7878;44.632;10.942;2022-09-09T00:54:40;12.10;;;6.70;;
15553;SDS011;7878;44.632;10.942;2022-09-09T00:57:28;9.13;;;6.60;;
15553;SDS011;7878;44.632;10.942;2022-09-09T01:02:46;8.82;;;7.05;;
15553;SDS011;7878;44.632;10.942;2022-09-09T01:05:44;10.32;;;7.00;;
15553;SDS011;7878;44.632;10.942;2022-09-09T01:08:36;8.38;;;6.50;;
15553;SDS011;7878;44.632;10.942;2022-09-09T01:20:10;9.00;;;6.70;;
15553;SDS011;7878;44.632;10.942;2022-09-09T01:23:23;11.85;;;6.82;;
15553;SDS011;7878;44.632;10.942;2022-09-09T01:29:02;11.35;;;7.63;;
15553;SDS011;7878;44.632;10.942;2022-09-09T01:31:41;12.85;;;8.32;;
15553;SDS011;7878;44.632;10.942;2022-09-09T01:34:16;12.85;;;7.30;;
15553;SDS011;7878;44.632;10.942;2022-09-09T01:39:25;14.75;;;8.23;;
15553;SDS011;7878;44.632;10.942;2022-09-09T01:41:51;14.20;;;8.02;;
15553;SDS011;7878;44.632;10.942;2022-09-09T01:44:18;10.48;;;7.57;;
15553;SDS011;7878;44.632;10.942;2022-09-09T01:46:44;18.10;;;8.43;;
15553;SDS011;7878;44.632;10.942;2022-09-09T01:49:10;11.23;;;8.55;;
15553;SDS011;7878;44.632;10.942;2022-09-09T01:51:36;10.80;;;7.85;;
15553;SDS011;7878;44.632;10.942;2022-09-09T01:54:04;13.02;;;8.25;;
15553;SDS011;7878;44.632;10.942;2022-09-09T02:01:43;11.70;;;7.82;;
15553;SDS011;7878;44.632;10.942;2022-09-09T02:07:06;8.63;;;7.30;;
15553;SDS011;7878;44.632;10.942;2022-09-09T02:10:42;13.80;;;7.82;;
15553;SDS011;7878;44.632;10.942;2022-09-09T02:13:04;11.20;;;7.78;;
15553;SDS011;7878;44.632;10.942;2022-09-09T02:18:04;12.32;;;8.02;;
15553;SDS011;7878;44.632;10.942;2022-09-09T02:20:33;12.00;;;8.23;;
15553;SDS011;7878;44.632;10.942;2022-09-09T02:23:02;13.68;;;9.18;;
15553;SDS011;7878;44.632;10.942;2022-09-09T02:25:30;10.18;;;8.30;;
15553;SDS011;7878;44.632;10.942;2022-09-09T02:27:55;8.98;;;8.07;;
15553;SDS011;7878;44.632;10.942;2022-09-09T02:30:25;12.23;;;8.73;;
15553;SDS011;7878;44.632;10.942;2022-09-09T02:32:54;10.05;;;8.50;;
15553;SDS011;7878;44.632;10.942;2022-09-09T02:35:23;11.48;;;7.63;;
15553;SDS011;7878;44.632;10.942;2022-09-09T02:37:51;12.73;;;8.02;;
15553;SDS011;7878;44.632;10.942;2022-09-09T02:40:20;9.63;;;7.75;;
15553;SDS011;7878;44.632;10.942;2022-09-09T02:42:47;11.55;;;8.27;;
15553;SDS011;7878;44.632;10.942;2022-09-09T02:45:16;8.98;;;7.85;;
15553;SDS011;7878;44.632;10.942;2022-09-09T02:48:03;14.55;;;8.23;;
15553;SDS011;7878;44.632;10.942;2022-09-09T02:50:55;8.38;;;6.88;;
15553;SDS011;7878;44.632;10.942;2022-09-09T02:53:32;10.02;;;7.55;;
15553;SDS011;7878;44.632;10.942;2022-09-09T02:56:20;9.90;;;7.75;;
15553;SDS011;7878;44.632;10.942;2022-09-09T02:58:48;11.20;;;7.07;;
15553;SDS011;7878;44.632;10.942;2022-09-09T03:01:16;10.30;;;7.68;;
15553;SDS011;7878;44.632;10.942;2022-09-09T03:03:42;10.02;;;7.25;;
15553;SDS011;7878;44.632;10.942;2022-09-09T03:06:09;8.63;;;7.80;;
15553;SDS011;7878;44.632;10.942;2022-09-09T03:08:36;13.20;;;8.07;;
15553;SDS011;7878;44.632;10.942;2022-09-09T03:11:02;12.65;;;8.00;;
15553;SDS011;7878;44.632;10.942;2022-09-09T03:13:28;11.60;;;8.15;;
15553;SDS011;7878;44.632;10.942;2022-09-09T03:15:54;12.82;;;8.57;;
15553;SDS011;7878;44.632;10.942;2022-09-09T03:18:20;13.20;;;9.00;;
15553;SDS011;7878;44.632;10.942;2022-09-09T03:20:46;12.70;;;8.82;;
15553;SDS011;7878;44.632;10.942;2022-09-09T03:23:16;12.82;;;8.80;;
15553;SDS011;7878;44.632;10.942;2022-09-09T03:25:50;17.13;;;8.95;;
15553;SDS011;7878;44.632;10.942;2022-09-09T03:28:17;10.40;;;8.32;;
15553;SDS011;7878;44.632;10.942;2022-09-09T03:30:43;10.55;;;8.18;;
15553;SDS011;7878;44.632;10.942;2022-09-09T03:33:08;11.00;;;8.93;;
15553;SDS011;7878;44.632;10.942;2022-09-09T03:35:34;15.30;;;9.50;;
15553;SDS011;7878;44.632;10.942;2022-09-09T03:38:00;10.70;;;8.88;;
15553;SDS011;7878;44.632;10.942;2022-09-09T03:40:25;15.75;;;9.82;;
15553;SDS011;7878;44.632;10.942;2022-09-09T03:42:51;10.52;;;9.50;;
15553;SDS011;7878;44.632;10.942;2022-09-09T03:45:17;11.07;;;9.23;;
15553;SDS011;7878;44.632;10.942;2022-09-09T03:47:43;11.32;;;8.80;;
15553;SDS011;7878;44.632;10.942;2022-09-09T03:50:09;11.60;;;8.90;;
15553;SDS011;7878;44.632;10.942;2022-09-09T03:52:38;15.48;;;10.90;;
15553;SDS011;7878;44.632;10.942;2022-09-09T03:55:06;14.00;;;10.25;;
15553;SDS011;7878;44.632;10.942;2022-09-09T03:57:32;8.88;;;7.50;;
15553;SDS011;7878;44.632;10.942;2022-09-09T04:00:00;9.43;;;7.55;;
15553;SDS011;7878;44.632;10.942;2022-09-09T04:02:30;12.20;;;8.95;;
15553;SDS011;7878;44.632;10.942;2022-09-09T04:04:55;8.88;;;7.75;;
15553;SDS011;7878;44.632;10.942;2022-09-09T04:07:21;9.43;;;8.05;;
15553;SDS011;7878;44.632;10.942;2022-09-09T04:09:47;10.15;;;7.32;;
15553;SDS011;7878;44.632;10.942;2022-09-09T04:12:13;11.13;;;8.82;;
15553;SDS011;7878;44.632;10.942;2022-09-09T04:14:39;9.70;;;8.50;;
15553;SDS011;7878;44.632;10.942;2022-09-09T04:17:04;10.20;;;8.10;;
15553;SDS011;7878;44.632;10.942;2022-09-09T04:19:31;14.05;;;8.50;;
15553;SDS011;7878;44.632;10.942;2022-09-09T04:21:57;14.45;;;8.88;;
15553;SDS011;7878;44.632;10.942;2022-09-09T04:24:23;12.10;;;7.90;;
15553;SDS011;7878;44.632;10.942;2022-09-09T04:26:50;11.52;;;8.52;;
15553;SDS011;7878;44.632;10.942;2022-09-09T04:29:16;12.82;;;7.90;;
15553;SDS011;7878;44.632;10.942;2022-09-09T04:31:42;15.82;;;10.18;;
15553;SDS011;7878;44.632;10.942;2022-09-09T04:34:08;10.35;;;8.40;;
15553;SDS011;7878;44.632;10.942;2022-09-09T04:36:34;12.40;;;9.00;;
15553;SDS011;7878;44.632;10.942;2022-09-09T04:39:00;11.10;;;7.68;;
15553;SDS011;7878;44.632;10.942;2022-09-09T04:41:26;11.88;;;7.95;;
15553;SDS011;7878;44.632;10.942;2022-09-09T04:43:52;11.73;;;8.48;;
15553;SDS011;7878;44.632;10.942;2022-09-09T04:46:18;12.63;;;7.45;;
15553;SDS011;7878;44.632;10.942;2022-09-09T04:48:45;12.35;;;9.25;;
15553;SDS011;7878;44.632;10.942;2022-09-09T04:51:11;11.15;;;8.88;;
15553;SDS011;7878;44.632;10.942;2022-09-09T04:53:38;14.07;;;7.85;;
15553;SDS011;7878;44.632;10.942;2022-09-09T04:56:12;15.88;;;9.02;;
15553;SDS011;7878;44.632;10.942;2022-09-09T04:58:39;14.38;;;8.75;;
15553;SDS011;7878;44.632;10.942;2022-09-09T05:01:16;13.43;;;8.77;;
15553;SDS011;7878;44.632;10.942;2022-09-09T05:03:49;13.20;;;8.75;;
15553;SDS011;7878;44.632;10.942;2022-09-09T05:06:16;10.95;;;8.23;;
15553;SDS011;7878;44.632;10.942;2022-09-09T05:08:43;14.25;;;8.68;;
15553;SDS011;7878;44.632;10.942;2022-09-09T05:11:16;16.67;;;9.57;;
15553;SDS011;7878;44.632;10.942;2022-09-09T05:13:43;16.27;;;9.10;;
15553;SDS011;7878;44.632;10.942;2022-09-09T05:16:09;13.98;;;8.20;;
15553;SDS011;7878;44.632;10.942;2022-09-09T05:18:36;12.48;;;9.35;;
15553;SDS011;7878;44.632;10.942;2022-09-09T05:21:03;10.30;;;9.00;;
15553;SDS011;7878;44.632;10.942;2022-09-09T05:23:28;14.85;;;9.60;;
15553;SDS011;7878;44.632;10.942;2022-09-09T05:25:57;12.38;;;8.23;;
15553;SDS011;7878;44.632;10.942;2022-09-09T05:28:24;18.40;;;8.88;;
15553;SDS011;7878;44.632;10.942;2022-09-09T05:30:57;16.00;;;8.93;;
15553;SDS011;7878;44.632;10.942;2022-09-09T05:33:25;16.73;;;7.97;;
15553;SDS011;7878;44.632;10.942;2022-09-09T05:35:55;16.35;;;8.50;;
15553;SDS011;7878;44.632;10.942;2022-09-09T05:38:25;18.65;;;8.80;;
15553;SDS011;7878;44.632;10.942;2022-09-09T05:40:51;17.35;;;8.30;;
15553;SDS011;7878;44.632;10.942;2022-09-09T05:43:17;15.25;;;8.27;;
15553;SDS011;7878;44.632;10.942;2022-09-09T05:45:45;13.13;;;7.82;;
15553;SDS011;7878;44.632;10.942;2022-09-09T05:48:27;12.50;;;7.63;;
15553;SDS011;7878;44.632;10.942;2022-09-09T05:50:54;12.50;;;5.95;;
15553;SDS011;7878;44.632;10.942;2022-09-09T05:53:20;6.20;;;4.13;;
15553;SDS011;7878;44.632;10.942;2022-09-09T05:55:46;7.70;;;4.18;;
15553;SDS011;7878;44.632;10.942;2022-09-09T05:58:12;9.57;;;4.25;;
15553;SDS011;7878;44.632;10.942;2022-09-09T06:00:39;14.30;;;3.80;;
15553;SDS011;7878;44.632;10.942;2022-09-09T06:03:05;8.20;;;4.25;;
15553;SDS011;7878;44.632;10.942;2022-09-09T06:05:30;10.75;;;3.67;;
15553;SDS011;7878;44.632;10.942;2022-09-09T06:07:56;8.98;;;3.83;;
15553;SDS011;7878;44.632;10.942;2022-09-09T06:10:22;15.23;;;3.85;;
15553;SDS011;7878;44.632;10.942;2022-09-09T06:12:48;12.02;;;6.28;;
15553;SDS011;7878;44.632;10.942;2022-09-09T06:15:13;9.90;;;7.28;;
15553;SDS011;7878;44.632;10.942;2022-09-09T06:17:39;8.73;;;6.63;;
15553;SDS011;7878;44.632;10.942;2022-09-09T06:20:06;13.23;;;6.80;;
15553;SDS011;7878;44.632;10.942;2022-09-09T06:22:34;8.88;;;5.97;;
15553;SDS011;7878;44.632;10.942;2022-09-09T06:24:59;8.40;;;5.32;;
15553;SDS011;7878;44.632;10.942;2022-09-09T06:27:26;10.00;;;4.35;;
15553;SDS011;7878;44.632;10.942;2022-09-09T06:29:53;7.30;;;3.58;;
15553;SDS011;7878;44.632;10.942;2022-09-09T06:32:19;6.85;;;3.90;;
15553;SDS011;7878;44.632;10.942;2022-09-09T06:34:44;10.23;;;3.30;;
15553;SDS011;7878;44.632;10.942;2022-09-09T06:37:10;9.00;;;3.78;;
15553;SDS011;7878;44.632;10.942;2022-09-09T06:39:36;13.35;;;3.90;;
15553;SDS011;7878;44.632;10.942;2022-09-09T06:42:01;11.27;;;4.20;;
15553;SDS011;7878;44.632;10.942;2022-09-09T06:44:28;11.25;;;7.05;;
15553;SDS011;7878;44.632;10.942;2022-09-09T06:46:58;12.38;;;9.30;;
15553;SDS011;7878;44.632;10.942;2022-09-09T06:49:24;15.07;;;9.55;;
15553;SDS011;7878;44.632;10.942;2022-09-09T06:51:50;16.30;;;9.00;;
15553;SDS011;7878;44.632;10.942;2022-09-09T06:54:17;12.52;;;10.05;;
15553;SDS011;7878;44.632;10.942;2022-09-09T06:56:43;16.67;;;10.38;;
15553;SDS011;7878;44.632;10.942;2022-09-09T06:59:10;13.32;;;11.32;;
15553;SDS011;7878;44.632;10.942;2022-09-09T07:01:40;14.82;;;10.05;;
15553;SDS011;7878;44.632;10.942;2022-09-09T07:04:08;16.70;;;11.75;;
15553;SDS011;7878;44.632;10.942;2022-09-09T07:06:39;12.88;;;10.38;;
15553;SDS011;7878;44.632;10.942;2022-09-09T07:09:10;14.07;;;10.77;;
15553;SDS011;7878;44.632;10.942;2022-09-09T07:11:41;14.40;;;10.50;;
15553;SDS011;7878;44.632;10.942;2022-09-09T07:14:09;37.90;;;11.77;;
15553;SDS011;7878;44.632;10.942;2022-09-09T07:16:39;15.20;;;10.40;;
15553;SDS011;7878;44.632;10.942;2022-09-09T07:19:05;13.45;;;9.68;;
15553;SDS011;7878;44.632;10.942;2022-09-09T07:21:31;18.30;;;10.55;;
15553;SDS011;7878;44.632;10.942;2022-09-09T07:23:58;23.60;;;13.48;;
15553;SDS011;7878;44.632;10.942;2022-09-09T07:26:26;22.88;;;13.10;;
15553;SDS011;7878;44.632;10.942;2022-09-09T07:28:53;21.05;;;13.85;;
15553;SDS011;7878;44.632;10.942;2022-09-09T07:31:31;21.73;;;14.90;;
15553;SDS011;7878;44.632;10.942;2022-09-09T07:33:59;20.13;;;15.43;;
15553;SDS011;7878;44.632;10.942;2022-09-09T07:36:26;25.23;;;15.85;;
15553;SDS011;7878;44.632;10.942;2022-09-09T07:38:57;22.25;;;16.25;;
15553;SDS011;7878;44.632;10.942;2022-09-09T07:41:31;20.23;;;16.17;;
15553;SDS011;7878;44.632;10.942;2022-09-09T07:44:05;23.38;;;17.13;;
15553;SDS011;7878;44.632;10.942;2022-09-09T07:46:36;19.58;;;16.30;;
15553;SDS011;7878;44.632;10.942;2022-09-09T07:49:04;23.25;;;16.92;;
15553;SDS011;7878;44.632;10.942;2022-09-09T07:51:32;20.85;;;16.90;;
15553;SDS011;7878;44.632;10.942;2022-09-09T07:54:00;25.25;;;16.80;;
15553;SDS011;7878;44.632;10.942;2022-09-09T07:56:28;18.15;;;15.20;;
15553;SDS011;7878;44.632;10.942;2022-09-09T07:58:55;20.75;;;15.93;;
15553;SDS011;7878;44.632;10.942;2022-09-09T08:01:28;20.45;;;16.10;;
15553;SDS011;7878;44.632;10.942;2022-09-09T08:03:57;18.85;;;16.83;;
15553;SDS011;7878;44.632;10.942;2022-09-09T08:06:26;19.35;;;15.93;;
15553;SDS011;7878;44.632;10.942;2022-09-09T08:08:53;18.83;;;16.02;;
15553;SDS011;7878;44.632;10.942;2022-09-09T08:11:20;22.25;;;16.77;;
15553;SDS011;7878;44.632;10.942;2022-09-09T08:13:48;19.10;;;17.10;;
15553;SDS011;7878;44.632;10.942;2022-09-09T08:16:15;22.90;;;16.98;;
15553;SDS011;7878;44.632;10.942;2022-09-09T08:18:43;19.67;;;17.23;;
15553;SDS011;7878;44.632;10.942;2022-09-09T08:21:13;19.40;;;16.30;;
15553;SDS011;7878;44.632;10.942;2022-09-09T08:23:43;22.50;;;16.73;;
15553;SDS011;7878;44.632;10.942;2022-09-09T08:26:14;20.63;;;15.57;;
15553;SDS011;7878;44.632;10.942;2022-09-09T08:28:42;21.10;;;15.23;;
15553;SDS011;7878;44.632;10.942;2022-09-09T08:33:41;22.10;;;15.77;;
15553;SDS011;7878;44.632;10.942;2022-09-09T08:36:11;25.10;;;16.95;;
15553;SDS011;7878;44.632;10.942;2022-09-09T08:38:41;18.10;;;15.13;;
15553;SDS011;7878;44.632;10.942;2022-09-09T08:41:15;19.48;;;17.30;;
15553;SDS011;7878;44.632;10.942;2022-09-09T08:43:43;23.20;;;17.67;;
15553;SDS011;7878;44.632;10.942;2022-09-09T08:46:24;22.15;;;18.17;;
15553;SDS011;7878;44.632;10.942;2022-09-09T08:49:05;20.98;;;18.52;;
15553;SDS011;7878;44.632;10.942;2022-09-09T08:51:53;19.77;;;16.65;;
15553;SDS011;7878;44.632;10.942;2022-09-09T08:54:22;20.38;;;17.98;;
15553;SDS011;7878;44.632;10.942;2022-09-09T08:56:48;26.17;;;16.98;;
15553;SDS011;7878;44.632;10.942;2022-09-09T08:59:15;20.65;;;17.15;;
15553;SDS011;7878;44.632;10.942;2022-09-09T09:02:01;21.60;;;16.10;;
15553;SDS011;7878;44.632;10.942;2022-09-09T09:13:04;16.98;;;12.52;;
15553;SDS011;7878;44.632;10.942;2022-09-09T09:15:40;16.75;;;11.63;;
15553;SDS011;7878;44.632;10.942;2022-09-09T09:18:10;14.68;;;9.98;;
15553;SDS011;7878;44.632;10.942;2022-09-09T09:23:23;11.10;;;6.93;;
15553;SDS011;7878;44.632;10.942;2022-09-09T09:25:52;13.35;;;7.25;;
15553;SDS011;7878;44.632;10.942;2022-09-09T09:28:24;13.00;;;8.27;;
15553;SDS011;7878;44.632;10.942;2022-09-09T09:30:55;15.23;;;8.27;;
15553;SDS011;7878;44.632;10.942;2022-09-09T09:35:53;9.68;;;5.95;;
15553;SDS011;7878;44.632;10.942;2022-09-09T09:38:23;9.77;;;5.72;;
15553;SDS011;7878;44.632;10.942;2022-09-09T09:43:33;8.77;;;5.85;;
15553;SDS011;7878;44.632;10.942;2022-09-09T09:46:00;9.82;;;4.82;;
15553;SDS011;7878;44.632;10.942;2022-09-09T09:48:29;7.75;;;4.53;;
15553;SDS011;7878;44.632;10.942;2022-09-09T09:50:59;10.85;;;4.93;;
15553;SDS011;7878;44.632;10.942;2022-09-09T09:53:30;9.77;;;5.82;;
15553;SDS011;7878;44.632;10.942;2022-09-09T09:56:02;9.40;;;5.15;;
15553;SDS011;7878;44.632;10.942;2022-09-09T10:01:23;9.90;;;4.70;;
15553;SDS011;7878;44.632;10.942;2022-09-09T10:04:00;7.22;;;4.68;;
15553;SDS011;7878;44.632;10.942;2022-09-09T10:06:45;7.22;;;4.43;;
15553;SDS011;7878;44.632;10.942;2022-09-09T10:09:30;8.75;;;4.75;;
15553;SDS011;7878;44.632;10.942;2022-09-09T10:12:04;8.23;;;4.90;;
15553;SDS011;7878;44.632;10.942;2022-09-09T10:37:11;10.30;;;3.72;;
15553;SDS011;7878;44.632;10.942;2022-09-09T10:39:50;7.20;;;4.50;;
15553;SDS011;7878;44.632;10.942;2022-09-09T10:42:30;11.85;;;4.35;;
15553;SDS011;7878;44.632;10.942;2022-09-09T10:45:10;8.25;;;4.22;;
15553;SDS011;7878;44.632;10.942;2022-09-09T10:47:55;7.40;;;4.00;;
15553;SDS011;7878;44.632;10.942;2022-09-09T10:50:40;5.38;;;3.47;;
15553;SDS011;7878;44.632;10.942;2022-09-09T10:55:43;6.47;;;3.70;;
15553;SDS011;7878;44.632;10.942;2022-09-09T10:58:15;6.28;;;3.22;;
15553;SDS011;7878;44.632;10.942;2022-09-09T11:00:51;9.20;;;3.90;;
15553;SDS011;7878;44.632;10.942;2022-09-09T11:03:28;6.85;;;3.47;;
15553;SDS011;7878;44.632;10.942;2022-09-09T11:05:58;6.82;;;3.85;;
15553;SDS011;7878;44.632;10.942;2022-09-09T11:08:35;7.75;;;4.35;;
15553;SDS011;7878;44.632;10.942;2022-09-09T11:11:08;9.18;;;3.97;;
15553;SDS011;7878;44.632;10.942;2022-09-09T11:13:48;10.18;;;3.88;;
15553;SDS011;7878;44.632;10.942;2022-09-09T11:19:02;7.40;;;3.10;;
15553;SDS011;7878;44.632;10.942;2022-09-09T11:21:48;8.20;;;3.30;;
15553;SDS011;7878;44.632;10.942;2022-09-09T11:27:11;7.40;;;3.30;;
15553;SDS011;7878;44.632;10.942;2022-09-09T11:30:05;4.95;;;3.15;;
15553;SDS011;7878;44.632;10.942;2022-09-09T11:35:41;6.78;;;3.33;;
15553;SDS011;7878;44.632;10.942;2022-09-09T11:41:11;3.70;;;2.97;;
15553;SDS011;7878;44.632;10.942;2022-09-09T11:46:06;4.55;;;2.58;;
15553;SDS011;7878;44.632;10.942;2022-09-09T11:51:10;7.07;;;2.70;;
15553;SDS011;7878;44.632;10.942;2022-09-09T11:53:57;6.80;;;2.65;;
15553;SDS011;7878;44.632;10.942;2022-09-09T11:56:46;5.72;;;2.50;;
15553;SDS011;7878;44.632;10.942;2022-09-09T12:01:50;14.20;;;2.97;;
15553;SDS011;7878;44.632;10.942;2022-09-09T12:06:54;8.23;;;2.60;;
15553;SDS011;7878;44.632;10.942;2022-09-09T12:14:38;6.82;;;2.20;;
15553;SDS011;7878;44.632;10.942;2022-09-09T12:19:42;8.02;;;2.85;;
15553;SDS011;7878;44.632;10.942;2022-09-09T12:22:32;6.78;;;2.88;;
15553;SDS011;7878;44.632;10.942;2022-09-09T12:28:02;13.52;;;3.20;;
15553;SDS011;7878;44.632;10.942;2022-09-09T12:30:41;9.30;;;3.25;;
15553;SDS011;7878;44.632;10.942;2022-09-09T12:33:35;8.75;;;3.45;;
15553;SDS011;7878;44.632;10.942;2022-09-09T12:36:03;8.20;;;3.00;;
15553;SDS011;7878;44.632;10.942;2022-09-09T12:41:01;7.53;;;2.75;;
15553;SDS011;7878;44.632;10.942;2022-09-09T12:43:28;4.35;;;2.80;;
15553;SDS011;7878;44.632;10.942;2022-09-09T12:46:01;6.88;;;3.55;;
15553;SDS011;7878;44.632;10.942;2022-09-09T12:48:35;5.97;;;2.80;;
15553;SDS011;7878;44.632;10.942;2022-09-09T12:51:15;6.95;;;2.42;;
15553;SDS011;7878;44.632;10.942;2022-09-09T12:53:44;7.28;;;2.83;;
15553;SDS011;7878;44.632;10.942;2022-09-09T12:56:17;8.75;;;2.92;;
15553;SDS011;7878;44.632;10.942;2022-09-09T12:58:46;8.93;;;3.40;;
15553;SDS011;7878;44.632;10.942;2022-09-09T13:01:21;6.88;;;3.65;;
15553;SDS011;7878;44.632;10.942;2022-09-09T13:03:50;7.93;;;3.38;;
15553;SDS011;7878;44.632;10.942;2022-09-09T13:06:26;5.40;;;2.90;;
15553;SDS011;7878;44.632;10.942;2022-09-09T13:08:54;7.32;;;3.00;;
15553;SDS011;7878;44.632;10.942;2022-09-09T13:11:23;9.52;;;2.97;;
15553;SDS011;7878;44.632;10.942;2022-09-09T13:13:54;11.98;;;3.22;;
15553;SDS011;7878;44.632;10.942;2022-09-09T13:18:57;6.88;;;2.88;;
15553;SDS011;7878;44.632;10.942;2022-09-09T13:21:34;4.15;;;2.70;;
15553;SDS011;7878;44.632;10.942;2022-09-09T13:24:03;5.50;;;2.60;;
15553;SDS011;7878;44.632;10.942;2022-09-09T13:26:32;10.38;;;2.42;;
15553;SDS011;7878;44.632;10.942;2022-09-09T13:29:14;7.78;;;2.60;;
15553;SDS011;7878;44.632;10.942;2022-09-09T13:31:45;5.95;;;2.17;;
15553;SDS011;7878;44.632;10.942;2022-09-09T13:34:30;7.40;;;2.45;;
15553;SDS011;7878;44.632;10.942;2022-09-09T13:37:01;10.57;;;2.60;;
15553;SDS011;7878;44.632;10.942;2022-09-09T13:39:30;3.70;;;2.22;;
15553;SDS011;7878;44.632;10.942;2022-09-09T13:41:59;9.77;;;2.72;;
15553;SDS011;7878;44.632;10.942;2022-09-09T13:44:31;8.93;;;2.30;;
15553;SDS011;7878;44.632;10.942;2022-09-09T13:49:31;8.80;;;2.80;;
15553;SDS011;7878;44.632;10.942;2022-09-09T13:52:11;5.55;;;2.47;;
15553;SDS011;7878;44.632;10.942;2022-09-09T13:54:39;6.35;;;2.50;;
15553;SDS011;7878;44.632;10.942;2022-09-09T13:57:14;8.93;;;2.47;;
15553;SDS011;7878;44.632;10.942;2022-09-09T13:59:43;7.38;;;2.22;;
15553;SDS011;7878;44.632;10.942;2022-09-09T14:02:09;7.97;;;2.28;;
15553;SDS011;7878;44.632;10.942;2022-09-09T14:04:35;12.65;;;2.40;;
15553;SDS011;7878;44.632;10.942;2022-09-09T14:07:01;4.40;;;2.10;;
15553;SDS011;7878;44.632;10.942;2022-09-09T14:09:28;3.80;;;2.15;;
15553;SDS011;7878;44.632;10.942;2022-09-09T14:11:53;4.65;;;2.30;;
15553;SDS011;7878;44.632;10.942;2022-09-09T14:14:20;5.40;;;2.33;;
15553;SDS011;7878;44.632;10.942;2022-09-09T14:16:46;5.78;;;2.35;;
15553;SDS011;7878;44.632;10.942;2022-09-09T14:19:12;4.20;;;2.22;;
15553;SDS011;7878;44.632;10.942;2022-09-09T14:21:38;6.28;;;2.22;;
15553;SDS011;7878;44.632;10.942;2022-09-09T14:24:04;9.52;;;3.22;;
15553;SDS011;7878;44.632;10.942;2022-09-09T14:26:29;7.30;;;4.00;;
15553;SDS011;7878;44.632;10.942;2022-09-09T14:28:55;5.47;;;2.90;;
15553;SDS011;7878;44.632;10.942;2022-09-09T14:31:21;4.93;;;2.53;;
15553;SDS011;7878;44.632;10.942;2022-09-09T14:33:48;4.85;;;2.10;;
15553;SDS011;7878;44.632;10.942;2022-09-09T14:36:15;6.38;;;2.20;;
15553;SDS011;7878;44.632;10.942;2022-09-09T14:38:41;8.68;;;2.88;;
15553;SDS011;7878;44.632;10.942;2022-09-09T14:41:11;7.18;;;2.78;;
15553;SDS011;7878;44.632;10.942;2022-09-09T14:43:41;5.25;;;2.25;;
15553;SDS011;7878;44.632;10.942;2022-09-09T14:46:08;7.03;;;2.35;;
15553;SDS011;7878;44.632;10.942;2022-09-09T14:48:36;8.15;;;2.80;;
15553;SDS011;7878;44.632;10.942;2022-09-09T14:51:06;6.35;;;2.53;;
15553;SDS011;7878;44.632;10.942;2022-09-09T14:53:38;3.83;;;2.10;;
15553;SDS011;7878;44.632;10.942;2022-09-09T14:58:35;5.30;;;2.90;;
15553;SDS011;7878;44.632;10.942;2022-09-09T15:01:05;3.17;;;2.22;;
15553;SDS011;7878;44.632;10.942;2022-09-09T15:03:31;5.95;;;2.20;;
15553;SDS011;7878;44.632;10.942;2022-09-09T15:05:58;5.22;;;2.60;;
15553;SDS011;7878;44.632;10.942;2022-09-09T15:08:29;8.48;;;2.33;;
15553;SDS011;7878;44.632;10.942;2022-09-09T15:10:58;6.60;;;2.75;;
15553;SDS011;7878;44.632;10.942;2022-09-09T15:13:25;3.03;;;2.28;;
15553;SDS011;7878;44.632;10.942;2022-09-09T15:15:51;4.97;;;2.30;;
15553;SDS011;7878;44.632;10.942;2022-09-09T15:18:19;9.77;;;2.50;;
15553;SDS011;7878;44.632;10.942;2022-09-09T15:20:45;8.15;;;2.72;;
15553;SDS011;7878;44.632;10.942;2022-09-09T15:23:12;5.88;;;2.42;;
15553;SDS011;7878;44.632;10.942;2022-09-09T15:25:39;5.35;;;2.67;;
15553;SDS011;7878;44.632;10.942;2022-09-09T15:28:24;4.60;;;2.10;;
15553;SDS011;7878;44.632;10.942;2022-09-09T15:30:50;5.72;;;2.78;;
15553;SDS011;7878;44.632;10.942;2022-09-09T15:33:18;11.10;;;2.90;;
15553;SDS011;7878;44.632;10.942;2022-09-09T15:35:45;14.80;;;2.90;;
15553;SDS011;7878;44.632;10.942;2022-09-09T15:38:10;7.50;;;2.60;;
15553;SDS011;7878;44.632;10.942;2022-09-09T15:40:38;4.90;;;2.45;;
15553;SDS011;7878;44.632;10.942;2022-09-09T15:43:04;6.28;;;2.30;;
15553;SDS011;7878;44.632;10.942;2022-09-09T15:45:31;4.50;;;2.40;;
15553;SDS011;7878;44.632;10.942;2022-09-09T15:47:58;6.72;;;2.67;;
15553;SDS011;7878;44.632;10.942;2022-09-09T15:50:28;4.35;;;2.35;;
15553;SDS011;7878;44.632;10.942;2022-09-09T15:52:56;7.43;;;2.70;;
15553;SDS011;7878;44.632;10.942;2022-09-09T15:55:22;4.32;;;2.35;;
15553;SDS011;7878;44.632;10.942;2022-09-09T15:57:51;5.38;;;2.50;;
15553;SDS011;7878;44.632;10.942;2022-09-09T16:00:20;6.32;;;2.58;;
15553;SDS011;7878;44.632;10.942;2022-09-09T16:02:47;8.02;;;2.70;;
15553;SDS011;7878;44.632;10.942;2022-09-09T16:05:13;7.18;;;2.78;;
15553;SDS011;7878;44.632;10.942;2022-09-09T16:07:39;3.00;;;2.20;;
15553;SDS011;7878;44.632;10.942;2022-09-09T16:10:07;6.45;;;2.90;;
15553;SDS011;7878;44.632;10.942;2022-09-09T16:12:33;6.35;;;2.78;;
15553;SDS011;7878;44.632;10.942;2022-09-09T16:14:59;6.63;;;2.95;;
15553;SDS011;7878;44.632;10.942;2022-09-09T16:17:25;7.03;;;2.50;;
15553;SDS011;7878;44.632;10.942;2022-09-09T16:19:52;6.68;;;2.17;;
15553;SDS011;7878;44.632;10.942;2022-09-09T16:22:19;5.47;;;2.47;;
15553;SDS011;7878;44.632;10.942;2022-09-09T16:24:45;8.30;;;2.45;;
15553;SDS011;7878;44.632;10.942;2022-09-09T16:27:11;6.82;;;2.60;;
15553;SDS011;7878;44.632;10.942;2022-09-09T16:29:36;6.50;;;2.30;;
15553;SDS011;7878;44.632;10.942;2022-09-09T16:32:02;9.23;;;3.15;;
15553;SDS011;7878;44.632;10.942;2022-09-09T16:34:28;6.35;;;3.65;;
15553;SDS011;7878;44.632;10.942;2022-09-09T16:36:53;4.43;;;2.38;;
15553;SDS011;7878;44.632;10.942;2022-09-09T16:39:19;7.72;;;3.03;;
15553;SDS011;7878;44.632;10.942;2022-09-09T16:41:46;5.90;;;2.22;;
15553;SDS011;7878;44.632;10.942;2022-09-09T16:44:13;5.53;;;2.25;;
15553;SDS011;7878;44.632;10.942;2022-09-09T16:46:42;4.10;;;2.38;;
15553;SDS011;7878;44.632;10.942;2022-09-09T16:49:09;9.90;;;2.70;;
15553;SDS011;7878;44.632;10.942;2022-09-09T16:51:40;6.15;;;2.25;;
15553;SDS011;7878;44.632;10.942;2022-09-09T16:54:11;7.25;;;2.72;;
15553;SDS011;7878;44.632;10.942;2022-09-09T16:56:39;5.82;;;2.65;;
15553;SDS011;7878;44.632;10.942;2022-09-09T16:59:10;10.02;;;2.70;;
15553;SDS011;7878;44.632;10.942;2022-09-09T17:01:38;9.13;;;2.13;;
15553;SDS011;7878;44.632;10.942;2022-09-09T17:04:09;3.33;;;2.10;;
15553;SDS011;7878;44.632;10.942;2022-09-09T17:06:38;7.45;;;2.33;;
15553;SDS011;7878;44.632;10.942;2022-09-09T17:09:05;3.90;;;2.10;;
15553;SDS011;7878;44.632;10.942;2022-09-09T17:11:33;8.25;;;2.90;;